Recent forum postings ...
Today
Change wake turbulence after filing FP
Yesterday
KLM-VA site "not responding", is my flight toast?
3 days ago
Fly KLM Mon CTL
2021-04-09
SCHEDULE FLIGHT BOEING 737
2021-04-08
Law and rules in KLM VA
2021-04-04
Flying a Tour.


 
Aircraft IdentFlightrulesType of Flight
KLM1049I
NumberType of AircraftWake turbulenceEquipmentTransponder Type
1B733LL
Departure AerodromeDeparture Time
EGAE0900
Cruising speedFlight level
29031000
Route
BEL L10 RINGA Q39 DANDI UL28 MCT M16 DOLAS L603 LAMSO



Destination AerodromeTotal EETAlternative Aerodrome
EHAM0120EHRD
Other information
DOF 210408 KLM VA /V/

Explanation of the IVAO flightplan

Eglinton (EGAE), United Kingdom

METAR
EGAE 080820Z 23016KT 6000 -SHRA SCT009 BKN016 08/07 Q1014

WINDSW at 18 mph
VISIBILITY10 miles
CONDITIONSlight rain showers
CLOUDSmostly cloudy
TEMP46°F (8°C)
WIND CHILL39°F (4°C)
DEWPT45°F (7°C)
HUMIDITY93%
BAROMETER1014 hPa (29.94 in Hg)

Schiphol (EHAM), Netherlands

METAR
EHAM 080955Z 21013KT 9999 FEW028 SCT045 06/M01 Q1022 NOSIG

WINDSSW at 15 mph
VISIBILITY16 miles
CONDITIONSlight rain showers
CLOUDSscattered clouds
TEMP43°F (6°C)
WIND CHILL36°F (2°C)
DEWPT30°F (-1°C)
HUMIDITY61%
BAROMETER1022 hPa (30.18 in Hg)

RUNWAYS

RunwayDesignatorSurfaceHeadingLengthWidthAltitudeILSILS-Freq.Glidescope Pitch
18CENTERASPHALT183.223295.5 ft45.11 ft-3.35 ftCAT III ILS/DME 36C108.753
18LEFTASPHALT183.253393.64 ft45.11 ft-3.35 ftCAT III ILS/DME 36R111.953
Registration TimeGroundspeedAltitudeTransponderHeadingLongitudeLatitudeOn ground
08:58 08-04-20211 kts13 ft1000262-7.1573955.04058Yes
09:0199 kts8 ft1000253-7.1542255.044Yes
09:04344 kts11160 ft1000129-6.9237554.93996No
09:07414 kts20851 ft1000128-6.4783954.76153No
09:10475 kts27932 ft1000128-5.9527154.55111No
09:13465 kts31047 ft1000129-5.3889854.32425No
09:16468 kts31103 ft1000133-4.8723554.08376No
09:19471 kts31100 ft1000126-4.3866153.86371No
09:22473 kts31174 ft1000112-3.7376653.63337No
09:25474 kts31212 ft1000107-3.1532253.52374No
09:28478 kts31158 ft1000107-2.514253.40461No
09:31477 kts31157 ft100099-1.9175753.32152No
09:34478 kts31251 ft1000100-1.2258953.24726No
09:37474 kts31130 ft100099-0.6304953.17975No
09:40471 kts31150 ft1000990.0708553.09646No
09:43470 kts31153 ft10001000.7101453.01666No
09:46458 kts31203 ft1000951.2915652.94501No
09:49461 kts31210 ft1000961.9734152.86325No
09:52420 kts26413 ft1000972.5736452.78748No
09:55386 kts21185 ft10001193.1084952.69294No
09:58354 kts15678 ft1000963.5295552.57245No
10:01289 kts9767 ft1000924.0144852.523No
10:04255 kts6105 ft1000834.3785752.50679No
10:07221 kts3254 ft10001214.6977652.51079No
10:10125 kts1511 ft10001874.7467452.40708No
10:1328 kts-5 ft10001554.7407952.3155Yes